createdAt,value
2022-11-08T00:00:51.574Z,11.70
2022-11-08T00:01:53.846Z,13.70
2022-11-08T00:02:57.896Z,12.60
2022-11-08T00:05:18.515Z,13.60
2022-11-08T00:06:20.584Z,12.90
2022-11-08T00:07:22.569Z,11.80
2022-11-08T00:08:24.647Z,11.90
2022-11-08T00:09:28.002Z,13.10
2022-11-08T00:10:30.141Z,12.00
2022-11-08T00:11:32.239Z,11.10
2022-11-08T00:12:34.347Z,10.30
2022-11-08T00:13:36.422Z,12.80
2022-11-08T00:14:39.545Z,13.73
2022-11-08T00:15:42.693Z,13.60
2022-11-08T00:16:44.940Z,12.50
2022-11-08T00:17:47.031Z,14.60
2022-11-08T00:18:49.118Z,13.60
2022-11-08T00:19:51.849Z,13.00
2022-11-08T00:20:54.230Z,11.64
2022-11-08T00:21:56.313Z,12.30
2022-11-08T00:22:58.623Z,13.10
2022-11-08T00:24:01.038Z,12.70
2022-11-08T00:25:03.547Z,13.30
2022-11-08T00:26:05.984Z,13.64
2022-11-08T00:27:12.455Z,10.20
2022-11-08T00:28:15.794Z,13.50
2022-11-08T00:29:18.274Z,12.10
2022-11-08T00:30:20.377Z,14.10
2022-11-08T00:31:22.945Z,11.80
2022-11-08T00:32:25.311Z,13.30
2022-11-08T00:33:27.439Z,12.10
2022-11-08T00:34:29.422Z,6.40
2022-11-08T00:35:32.570Z,12.30
2022-11-08T00:36:35.863Z,13.50
2022-11-08T00:37:38.223Z,11.60
2022-11-08T00:38:41.608Z,13.90
2022-11-08T00:39:43.741Z,12.70
2022-11-08T00:40:45.918Z,13.50
2022-11-08T00:41:48.014Z,10.50
2022-11-08T00:42:50.512Z,13.30
2022-11-08T00:43:52.604Z,12.50
2022-11-08T00:44:54.675Z,11.80
2022-11-08T00:45:56.800Z,13.50
2022-11-08T00:46:59.245Z,12.70
2022-11-08T00:48:01.336Z,12.60
2022-11-08T00:49:03.421Z,12.30
2022-11-08T00:50:06.800Z,13.00
2022-11-08T00:51:09.835Z,13.60
2022-11-08T00:52:11.977Z,12.40
2022-11-08T00:53:14.070Z,14.40
2022-11-08T00:54:17.575Z,11.20
2022-11-08T00:55:19.692Z,14.80
2022-11-08T00:56:22.194Z,14.30
2022-11-08T00:57:35.908Z,12.50
2022-11-08T00:58:28.862Z,15.10
2022-11-08T00:59:31.412Z,15.90
2022-11-08T01:00:33.600Z,14.30
2022-11-08T01:01:38.286Z,14.90
2022-11-08T01:02:40.904Z,14.80
2022-11-08T01:03:43.943Z,14.00
2022-11-08T01:04:47.226Z,16.20
2022-11-08T01:05:51.618Z,15.30
2022-11-08T01:06:54.074Z,14.90
2022-11-08T01:07:56.175Z,16.70
2022-11-08T01:08:59.817Z,16.00
2022-11-08T01:10:02.150Z,17.50
2022-11-08T01:11:06.859Z,16.45
2022-11-08T01:12:10.106Z,17.60
2022-11-08T01:13:13.597Z,17.73
2022-11-08T01:14:16.375Z,20.00
2022-11-08T01:15:18.965Z,16.40
2022-11-08T01:16:22.540Z,17.70
2022-11-08T01:17:24.674Z,17.50
2022-11-08T01:18:26.851Z,18.90
2022-11-08T01:19:28.755Z,17.33
2022-11-08T01:20:32.182Z,16.82
2022-11-08T01:21:34.826Z,16.50
2022-11-08T01:22:37.420Z,17.90
2022-11-08T01:23:40.154Z,18.20
2022-11-08T01:24:42.294Z,14.73
2022-11-08T01:25:45.598Z,16.30
2022-11-08T01:26:49.938Z,16.70
2022-11-08T01:27:52.141Z,15.90
2022-11-08T01:28:54.334Z,15.80
2022-11-08T01:29:56.811Z,12.80
2022-11-08T01:31:04.372Z,16.30
2022-11-08T01:32:06.646Z,16.80
2022-11-08T01:33:08.839Z,14.90
2022-11-08T01:34:10.929Z,17.50
2022-11-08T01:35:13.140Z,16.40
2022-11-08T01:36:17.430Z,17.00
2022-11-08T01:37:19.571Z,12.90
2022-11-08T01:38:21.653Z,18.30
2022-11-08T01:39:23.741Z,13.60
2022-11-08T01:40:27.195Z,14.70
2022-11-08T01:41:30.154Z,16.09
2022-11-08T01:42:32.394Z,15.36
2022-11-08T01:45:03.086Z,15.10
2022-11-08T01:46:24.672Z,15.20
2022-11-08T01:47:27.414Z,16.80
2022-11-08T01:48:29.368Z,14.50
2022-11-08T01:50:45.652Z,15.80
2022-11-08T01:52:01.431Z,12.10
2022-11-08T01:53:03.567Z,14.70
2022-11-08T01:54:08.959Z,16.50
2022-11-08T01:55:15.353Z,12.80
2022-11-08T01:56:18.499Z,16.20
2022-11-08T01:57:26.876Z,17.20
2022-11-08T01:58:30.819Z,15.00
2022-11-08T01:59:33.461Z,14.10
2022-11-08T02:02:09.348Z,15.60
2022-11-08T02:03:13.665Z,15.00
2022-11-08T02:04:16.354Z,15.30
2022-11-08T02:05:19.110Z,14.20
2022-11-08T02:06:21.205Z,13.40
2022-11-08T02:07:23.984Z,15.50
2022-11-08T02:08:37.954Z,14.36
2022-11-08T02:09:41.931Z,14.60
2022-11-08T02:10:45.276Z,14.20
2022-11-08T02:11:47.669Z,16.00
2022-11-08T02:12:51.174Z,15.50
2022-11-08T02:13:53.901Z,14.20
2022-11-08T02:14:57.255Z,11.70
2022-11-08T02:16:00.142Z,13.73
2022-11-08T02:17:02.377Z,15.70
2022-11-08T02:18:04.703Z,14.10
2022-11-08T02:19:08.304Z,15.10
2022-11-08T02:20:11.048Z,13.50
2022-11-08T02:22:39.948Z,15.50
2022-11-08T02:23:51.417Z,13.60
2022-11-08T02:24:54.389Z,13.90
2022-11-08T02:25:56.555Z,14.70
2022-11-08T02:26:58.660Z,12.10
2022-11-08T02:28:00.879Z,13.70
2022-11-08T02:29:22.907Z,11.10
2022-11-08T02:30:33.687Z,14.60
2022-11-08T02:31:35.916Z,12.20
2022-11-08T02:32:39.740Z,13.50
2022-11-08T02:33:42.249Z,14.40
2022-11-08T02:34:50.662Z,12.20
2022-11-08T02:35:55.075Z,13.00
2022-11-08T02:36:58.182Z,13.50
2022-11-08T02:38:00.307Z,13.00
2022-11-08T02:39:02.995Z,13.30
2022-11-08T02:40:06.399Z,14.64
2022-11-08T02:41:09.032Z,11.60
2022-11-08T02:42:15.566Z,13.60
2022-11-08T02:43:18.008Z,12.70
2022-11-08T02:44:20.957Z,12.30
2022-11-08T02:45:23.921Z,14.00
2022-11-08T02:46:26.044Z,12.10
2022-11-08T02:47:29.175Z,12.20
2022-11-08T02:48:31.568Z,12.60
2022-11-08T02:49:33.553Z,13.10
2022-11-08T02:50:35.761Z,13.50
2022-11-08T02:51:38.574Z,13.60
2022-11-08T02:52:40.714Z,12.36
2022-11-08T02:53:44.031Z,12.70
2022-11-08T02:54:46.173Z,13.40
2022-11-08T02:55:48.173Z,12.60
2022-11-08T02:56:50.789Z,12.40
2022-11-08T02:57:53.723Z,11.50
2022-11-08T02:58:55.792Z,14.27
2022-11-08T02:59:58.043Z,12.10
2022-11-08T03:01:01.266Z,11.50
2022-11-08T03:02:03.610Z,13.60
2022-11-08T03:03:05.944Z,11.50
2022-11-08T03:04:08.105Z,12.30
2022-11-08T03:05:10.304Z,12.20
2022-11-08T03:06:14.365Z,11.80
2022-11-08T03:07:22.131Z,12.60
2022-11-08T03:08:22.360Z,12.40
2022-11-08T03:09:24.506Z,12.60
2022-11-08T03:10:28.280Z,9.64
2022-11-08T03:11:31.404Z,13.50
2022-11-08T03:12:33.505Z,12.00
2022-11-08T03:13:35.511Z,12.50
2022-11-08T03:14:37.935Z,12.70
2022-11-08T03:15:40.595Z,12.80
2022-11-08T03:16:43.981Z,10.60
2022-11-08T03:17:46.078Z,12.80
2022-11-08T03:18:49.152Z,11.60
2022-11-08T03:19:51.257Z,11.60
2022-11-08T03:20:53.379Z,13.60
2022-11-08T03:21:55.485Z,11.90
2022-11-08T03:22:59.226Z,11.36
2022-11-08T03:24:02.389Z,5.80
2022-11-08T03:25:05.990Z,11.00
2022-11-08T03:26:09.200Z,11.70
2022-11-08T03:27:12.313Z,11.80
2022-11-08T03:28:16.388Z,13.30
2022-11-08T03:29:18.448Z,12.00
2022-11-08T03:30:20.539Z,13.00
2022-11-08T03:31:22.717Z,12.30
2022-11-08T03:32:24.816Z,11.80
2022-11-08T03:33:26.908Z,10.30
2022-11-08T03:34:29.014Z,11.00
2022-11-08T03:35:31.599Z,13.00
2022-11-08T03:36:35.309Z,10.80
2022-11-08T03:37:37.400Z,12.40
2022-11-08T03:38:39.432Z,12.44
2022-11-08T03:39:41.385Z,13.11
2022-11-08T03:40:44.663Z,9.20
2022-11-08T03:41:46.794Z,11.80
2022-11-08T03:42:49.090Z,11.50
2022-11-08T03:43:51.090Z,13.00
2022-11-08T03:44:53.778Z,13.30
2022-11-08T03:45:56.063Z,12.00
2022-11-08T03:46:59.262Z,12.00
2022-11-08T03:48:01.412Z,12.30
2022-11-08T03:49:03.517Z,10.30
2022-11-08T03:50:06.778Z,11.80
2022-11-08T03:51:08.926Z,12.80
2022-11-08T03:52:11.161Z,12.70
2022-11-08T03:53:13.711Z,12.60
2022-11-08T03:54:16.552Z,12.00
2022-11-08T03:55:20.017Z,9.40
2022-11-08T03:56:22.310Z,11.10
2022-11-08T03:57:25.145Z,7.82
2022-11-08T03:58:27.163Z,9.60
2022-11-08T03:59:29.297Z,11.60
2022-11-08T04:00:31.388Z,11.10
2022-11-08T04:01:33.703Z,12.10
2022-11-08T04:02:36.639Z,11.64
2022-11-08T04:03:38.893Z,8.10
2022-11-08T04:04:40.991Z,12.00
2022-11-08T04:05:43.552Z,11.10
2022-11-08T04:06:46.163Z,11.60
2022-11-08T04:07:48.174Z,9.80
2022-11-08T04:08:52.269Z,11.00
2022-11-08T04:09:55.117Z,11.50
2022-11-08T04:10:57.460Z,13.30
2022-11-08T04:11:59.562Z,12.10
2022-11-08T04:13:01.554Z,12.40
2022-11-08T04:14:03.552Z,12.30
2022-11-08T04:15:06.547Z,11.90
2022-11-08T04:16:15.232Z,10.90
2022-11-08T04:17:14.515Z,6.00
2022-11-08T04:18:17.082Z,13.00
2022-11-08T04:19:20.240Z,10.50
2022-11-08T04:20:22.338Z,11.70
2022-11-08T04:21:24.442Z,11.00
2022-11-08T04:22:26.653Z,13.00
2022-11-08T04:23:30.003Z,10.89
2022-11-08T04:24:32.869Z,10.80
2022-11-08T04:25:35.451Z,11.30
2022-11-08T04:26:41.736Z,11.20
2022-11-08T04:27:44.914Z,11.70
2022-11-08T04:28:47.013Z,11.00
2022-11-08T04:29:50.035Z,12.70
2022-11-08T04:30:54.436Z,11.20
2022-11-08T04:31:56.954Z,7.90
2022-11-08T04:33:00.216Z,9.20
2022-11-08T04:34:05.396Z,10.60
2022-11-08T04:35:08.200Z,11.40
2022-11-08T04:36:12.647Z,12.20
2022-11-08T04:37:14.778Z,11.20
2022-11-08T04:38:17.414Z,10.50
2022-11-08T04:39:19.712Z,8.18
2022-11-08T04:40:21.814Z,10.00
2022-11-08T04:41:24.296Z,12.10
2022-11-08T04:42:28.480Z,6.30
2022-11-08T04:43:31.091Z,10.50
2022-11-08T04:44:34.396Z,11.60
2022-11-08T04:45:36.484Z,12.20
2022-11-08T04:46:38.661Z,11.70
2022-11-08T04:47:45.749Z,6.60
2022-11-08T04:48:46.357Z,11.70
2022-11-08T04:49:48.449Z,7.60
2022-11-08T04:50:51.474Z,7.20
2022-11-08T04:51:54.421Z,8.30
2022-11-08T04:52:57.104Z,11.27
2022-11-08T04:54:00.305Z,10.20
2022-11-08T04:55:02.772Z,9.60
2022-11-08T04:56:08.305Z,10.40
2022-11-08T04:57:11.110Z,10.80
2022-11-08T04:58:13.275Z,11.91
2022-11-08T04:59:15.364Z,11.50
2022-11-08T05:00:19.060Z,7.80
2022-11-08T05:01:22.874Z,11.50
2022-11-08T05:02:25.704Z,11.00
2022-11-08T05:03:28.953Z,11.10
2022-11-08T05:04:31.358Z,10.80
2022-11-08T05:05:33.373Z,10.40
2022-11-08T05:06:35.468Z,9.90
2022-11-08T05:07:37.519Z,11.67
2022-11-08T05:08:40.372Z,9.91
2022-11-08T05:09:43.383Z,9.00
2022-11-08T05:10:45.485Z,10.60
2022-11-08T05:11:47.590Z,8.80
2022-11-08T05:12:54.602Z,10.70
2022-11-08T05:13:56.861Z,9.40
2022-11-08T05:14:58.982Z,9.80
2022-11-08T05:17:15.838Z,9.30
2022-11-08T05:18:18.094Z,10.64
2022-11-08T05:19:20.385Z,12.20
2022-11-08T05:20:22.784Z,9.30
2022-11-08T05:21:25.883Z,9.90
2022-11-08T05:22:27.882Z,9.30
2022-11-08T05:23:29.989Z,9.50
2022-11-08T05:24:33.109Z,8.10
2022-11-08T05:25:37.827Z,9.80
2022-11-08T05:26:40.891Z,10.40
2022-11-08T05:27:43.825Z,9.00
2022-11-08T05:28:46.921Z,9.40
2022-11-08T05:29:49.092Z,9.70
2022-11-08T05:30:52.603Z,9.90
2022-11-08T05:31:55.059Z,10.40
2022-11-08T05:32:57.074Z,11.20
2022-11-08T05:33:59.339Z,9.40
2022-11-08T05:35:02.125Z,12.30
2022-11-08T05:36:09.952Z,11.00
2022-11-08T05:37:12.115Z,12.20
2022-11-08T05:38:14.191Z,11.70
2022-11-08T05:39:17.338Z,9.20
2022-11-08T05:40:20.115Z,8.20
2022-11-08T05:41:23.211Z,10.60
2022-11-08T05:42:25.438Z,12.50
2022-11-08T05:43:27.524Z,10.40
2022-11-08T05:44:29.501Z,11.30
2022-11-08T05:45:33.667Z,13.10
2022-11-08T05:46:35.809Z,12.60
2022-11-08T05:47:37.919Z,10.90
2022-11-08T05:48:44.147Z,12.20
2022-11-08T05:49:46.324Z,12.60
2022-11-08T05:50:48.676Z,11.20
2022-11-08T05:51:52.027Z,11.20
2022-11-08T05:52:54.156Z,12.20
2022-11-08T05:53:56.152Z,10.90
2022-11-08T05:54:59.536Z,12.20
2022-11-08T05:56:01.877Z,12.00
2022-11-08T05:57:03.943Z,12.10
2022-11-08T05:58:06.903Z,11.50
2022-11-08T05:59:09.401Z,12.70
2022-11-08T06:00:12.676Z,13.70
2022-11-08T06:01:16.879Z,11.70
2022-11-08T06:02:19.195Z,11.30
2022-11-08T06:03:23.692Z,13.00
2022-11-08T06:04:25.713Z,12.50
2022-11-08T06:05:27.704Z,11.40
2022-11-08T06:06:29.749Z,11.78
2022-11-08T06:07:31.870Z,12.00
2022-11-08T06:08:34.478Z,11.90
2022-11-08T06:09:37.384Z,11.00
2022-11-08T06:10:39.858Z,6.30
2022-11-08T06:11:42.788Z,12.20
2022-11-08T06:12:44.863Z,10.30
2022-11-08T06:13:47.990Z,6.50
2022-11-08T06:14:50.106Z,2.80
2022-11-08T06:15:52.197Z,11.70
2022-11-08T06:16:54.559Z,12.10
2022-11-08T06:18:01.565Z,11.70
2022-11-08T06:19:03.787Z,11.00
2022-11-08T06:20:07.889Z,11.70
2022-11-08T06:21:19.690Z,12.70
2022-11-08T06:22:21.993Z,12.10
2022-11-08T06:23:23.986Z,13.30
2022-11-08T06:24:28.291Z,11.90
2022-11-08T06:25:30.438Z,10.00
2022-11-08T06:26:33.733Z,11.80
2022-11-08T06:27:35.961Z,11.80
2022-11-08T06:28:38.159Z,9.90
2022-11-08T06:29:40.645Z,12.10
2022-11-08T06:30:42.755Z,10.60
2022-11-08T06:31:45.547Z,12.30
2022-11-08T06:32:47.707Z,12.00
2022-11-08T06:33:50.789Z,12.60
2022-11-08T06:34:52.897Z,11.50
2022-11-08T06:35:54.978Z,11.00
2022-11-08T06:36:57.657Z,12.50
2022-11-08T06:38:04.483Z,11.20
2022-11-08T06:39:06.177Z,12.30
2022-11-08T06:40:10.204Z,12.27
2022-11-08T06:41:19.118Z,11.40
2022-11-08T06:42:21.271Z,8.10
2022-11-08T06:43:23.722Z,12.70
2022-11-08T06:44:27.121Z,12.90
2022-11-08T06:45:29.658Z,5.90
2022-11-08T06:46:31.748Z,12.10
2022-11-08T06:47:33.753Z,12.60
2022-11-08T06:48:36.430Z,12.60
2022-11-08T06:49:38.542Z,11.60
2022-11-08T06:50:41.131Z,9.80
2022-11-08T06:51:43.224Z,13.60
2022-11-08T06:52:45.339Z,13.60
2022-11-08T06:53:47.444Z,11.90
2022-11-08T06:54:50.706Z,13.27
2022-11-08T06:55:52.821Z,12.90
2022-11-08T10:14:34.091Z,13.20
2022-11-08T10:16:58.238Z,14.20
2022-11-08T10:18:19.450Z,14.10
2022-11-08T10:19:34.248Z,13.30
2022-11-08T10:22:24.581Z,13.50
2022-11-08T10:25:03.537Z,14.50
2022-11-08T10:26:27.256Z,14.40
2022-11-08T10:27:35.106Z,15.80
2022-11-08T10:28:43.453Z,13.40
2022-11-08T10:29:46.893Z,15.30
2022-11-08T10:30:50.929Z,15.20
2022-11-08T10:31:58.295Z,16.00
2022-11-08T10:33:00.451Z,13.10
2022-11-08T10:34:03.117Z,16.50
2022-11-08T10:35:20.667Z,15.90
2022-11-08T10:37:50.615Z,14.60
2022-11-08T10:39:05.556Z,16.70
2022-11-08T10:40:16.221Z,11.60
2022-11-08T10:41:41.992Z,14.70
2022-11-08T10:42:52.640Z,14.30
2022-11-08T10:44:12.666Z,16.00
2022-11-08T10:45:16.049Z,15.60
2022-11-08T10:46:49.886Z,15.36
2022-11-08T10:47:53.763Z,16.50
2022-11-08T10:48:58.043Z,17.50
2022-11-08T10:50:04.126Z,18.70
2022-11-08T10:51:04.938Z,17.40
2022-11-08T10:52:45.812Z,17.00
2022-11-08T10:53:47.997Z,18.10
2022-11-08T10:55:01.239Z,16.30
2022-11-08T10:56:06.108Z,17.70
2022-11-08T10:57:09.601Z,17.70
2022-11-08T10:58:40.673Z,15.20
2022-11-08T10:59:43.926Z,15.80
2022-11-08T11:00:51.923Z,16.00
2022-11-08T11:01:55.020Z,15.10
2022-11-08T11:03:04.567Z,16.80
2022-11-08T11:04:10.653Z,12.40
2022-11-08T11:05:20.190Z,16.00
2022-11-08T11:06:28.685Z,16.40
2022-11-08T11:07:35.153Z,16.60
2022-11-08T11:08:41.141Z,16.10
2022-11-08T11:09:43.299Z,15.80
2022-11-08T11:10:46.503Z,17.00
2022-11-08T11:12:00.946Z,16.40
2022-11-08T11:13:13.500Z,18.20
2022-11-08T11:14:21.932Z,15.80
2022-11-08T11:15:23.934Z,15.10
2022-11-08T11:16:26.125Z,15.55
2022-11-08T11:17:35.523Z,14.60
2022-11-08T11:18:46.943Z,16.80
2022-11-08T11:21:14.653Z,16.20
2022-11-08T11:22:17.470Z,16.00
2022-11-08T11:23:20.127Z,13.40
2022-11-08T11:24:24.017Z,15.10
2022-11-08T11:25:26.259Z,15.90
2022-11-08T11:26:32.844Z,16.70
2022-11-08T11:27:36.505Z,15.20
2022-11-08T11:28:39.182Z,17.50
2022-11-08T11:29:41.657Z,15.27
2022-11-08T11:30:44.854Z,16.90
2022-11-08T11:31:48.311Z,15.70
2022-11-08T11:33:07.073Z,15.00
2022-11-08T11:34:30.926Z,17.50
2022-11-08T11:35:44.661Z,18.00
2022-11-08T11:36:56.379Z,17.40
2022-11-08T11:37:58.554Z,16.10
2022-11-08T11:39:03.071Z,16.50
2022-11-08T11:40:24.362Z,16.80
2022-11-08T11:43:06.803Z,17.70
2022-11-08T11:45:58.975Z,17.90
2022-11-08T11:47:09.457Z,19.60
2022-11-08T11:48:28.910Z,18.20
2022-11-08T11:49:33.813Z,17.80
2022-11-08T11:51:52.938Z,12.70
2022-11-08T11:52:57.079Z,16.80
2022-11-08T11:54:01.140Z,17.00
2022-11-08T11:55:04.570Z,17.00
2022-11-08T11:56:14.162Z,16.60
2022-11-08T11:57:35.593Z,19.10
2022-11-08T11:58:58.391Z,19.80
2022-11-08T12:00:11.681Z,16.40
2022-11-08T12:01:28.463Z,20.00
2022-11-08T12:04:36.094Z,19.70
2022-11-08T12:05:58.533Z,22.10
2022-11-08T12:07:12.426Z,23.30
2022-11-08T12:08:27.628Z,22.20
2022-11-08T12:09:56.309Z,20.70
2022-11-08T12:11:13.839Z,22.80
2022-11-08T12:12:22.861Z,22.40
2022-11-08T12:13:54.621Z,21.40
2022-11-08T12:15:06.758Z,22.30
2022-11-08T12:16:17.281Z,22.20
2022-11-08T12:17:49.154Z,21.80
2022-11-08T12:19:13.667Z,22.50
2022-11-08T12:20:37.931Z,22.10
2022-11-08T12:21:47.242Z,22.20
2022-11-08T12:23:08.905Z,21.50
2022-11-08T12:24:30.176Z,21.50
2022-11-08T12:25:38.943Z,22.70
2022-11-08T12:27:10.617Z,21.90
2022-11-08T12:30:08.246Z,22.00
2022-11-08T12:31:36.037Z,21.90
2022-11-08T12:32:57.911Z,21.90
2022-11-08T12:34:07.693Z,20.60
2022-11-08T12:35:29.097Z,20.80
2022-11-08T12:36:49.902Z,19.50
2022-11-08T12:38:04.998Z,20.80
2022-11-08T12:39:11.028Z,20.70
2022-11-08T12:41:53.017Z,20.30
2022-11-08T12:43:17.341Z,20.90
2022-11-08T12:46:09.765Z,19.40
2022-11-08T12:47:40.639Z,21.50
2022-11-08T12:49:02.566Z,20.00
2022-11-08T12:50:43.462Z,19.20
2022-11-08T12:52:16.211Z,19.90
2022-11-08T12:53:28.256Z,21.00
2022-11-08T12:54:36.643Z,20.80
2022-11-08T12:55:40.132Z,19.50
2022-11-08T12:56:44.802Z,21.50
2022-11-08T12:57:47.927Z,20.20
2022-11-08T12:58:53.457Z,20.30
2022-11-08T13:00:04.437Z,20.00
2022-11-08T13:02:27.152Z,19.70
2022-11-08T13:03:46.100Z,19.20
2022-11-08T13:05:03.469Z,20.70
2022-11-08T13:08:08.606Z,18.90
2022-11-08T13:09:30.645Z,18.90
2022-11-08T13:10:55.190Z,19.80
2022-11-08T13:12:01.213Z,11.50
2022-11-08T13:13:22.352Z,19.30
2022-11-08T13:14:25.028Z,16.80
2022-11-08T13:15:27.936Z,18.90
2022-11-08T13:16:36.964Z,18.91
2022-11-08T13:17:39.518Z,20.50
2022-11-08T13:18:52.714Z,20.10
2022-11-08T13:21:31.759Z,19.30
2022-11-08T13:22:40.492Z,20.20
2022-11-08T13:23:42.530Z,20.00
2022-11-08T13:24:45.959Z,19.40
2022-11-08T13:25:48.358Z,19.30
2022-11-08T13:26:53.752Z,17.80
2022-11-08T13:27:55.457Z,19.80
2022-11-08T13:29:15.495Z,19.50
2022-11-08T13:30:22.072Z,18.90
2022-11-08T13:31:50.488Z,20.30
2022-11-08T13:33:11.851Z,14.60
2022-11-08T13:34:20.883Z,19.80
2022-11-08T13:35:50.230Z,20.10
2022-11-08T13:37:18.053Z,18.80
2022-11-08T13:38:33.194Z,19.70
2022-11-08T13:39:48.363Z,17.60
2022-11-08T13:41:11.279Z,20.90
2022-11-08T13:42:20.268Z,21.40
2022-11-08T13:43:25.593Z,19.60
2022-11-08T13:44:57.452Z,19.20
2022-11-08T13:46:23.620Z,10.30
2022-11-08T13:47:35.599Z,20.10
2022-11-08T13:48:40.027Z,15.60
2022-11-08T13:49:43.005Z,21.10
2022-11-08T13:52:24.629Z,17.90
2022-11-08T13:54:58.593Z,20.10
2022-11-08T13:56:08.230Z,18.10
2022-11-08T13:57:19.627Z,20.10
2022-11-08T13:58:37.980Z,19.40
2022-11-08T13:59:43.964Z,19.80
2022-11-08T14:00:46.493Z,21.80
2022-11-08T14:01:56.165Z,20.27
2022-11-08T14:02:59.587Z,21.30
2022-11-08T14:04:01.854Z,21.10
2022-11-08T14:05:23.239Z,19.80
2022-11-08T14:08:21.393Z,17.20
2022-11-08T14:11:30.082Z,18.20
2022-11-08T14:12:55.153Z,20.20
2022-11-08T17:55:40.741Z,27.20
2022-11-08T17:56:43.736Z,25.60
2022-11-08T17:57:46.616Z,25.20
2022-11-08T17:58:49.662Z,23.00
2022-11-08T17:59:52.638Z,24.30
2022-11-08T18:00:56.303Z,22.18
2022-11-08T18:01:58.781Z,24.00
2022-11-08T18:03:02.988Z,24.80
2022-11-08T18:04:05.318Z,24.20
2022-11-08T18:05:07.859Z,23.40
2022-11-08T18:06:12.386Z,23.50
2022-11-08T18:07:14.636Z,24.00
2022-11-08T18:08:17.044Z,24.30
2022-11-08T18:09:19.277Z,23.50
2022-11-08T18:10:21.376Z,2.10
2022-11-08T18:11:23.586Z,21.30
2022-11-08T18:12:26.521Z,24.40
2022-11-08T18:13:28.630Z,23.60
2022-11-08T18:14:31.373Z,22.00
2022-11-08T18:15:33.398Z,24.10
2022-11-08T18:16:37.794Z,23.60
2022-11-08T18:17:39.938Z,24.00
2022-11-08T18:18:43.697Z,22.90
2022-11-08T18:19:46.170Z,23.30
2022-11-08T18:20:53.942Z,23.50
2022-11-08T18:21:57.203Z,23.60
2022-11-08T18:22:59.313Z,21.70
2022-11-08T18:24:01.374Z,23.22
2022-11-08T18:25:04.340Z,24.00
2022-11-08T18:26:09.551Z,23.80
2022-11-08T18:28:28.157Z,23.30
2022-11-08T18:29:31.337Z,23.10
2022-11-08T18:30:34.554Z,22.27
2022-11-08T18:31:36.727Z,20.60
2022-11-08T18:32:38.958Z,24.50
2022-11-08T18:33:41.429Z,23.30
2022-11-08T18:34:43.683Z,23.00
2022-11-08T18:35:46.023Z,23.60
2022-11-08T18:36:51.264Z,23.10
2022-11-08T18:37:54.793Z,23.00
2022-11-08T18:39:00.593Z,24.50
2022-11-08T18:40:04.622Z,23.10
2022-11-08T18:41:08.412Z,21.60
2022-11-08T18:42:10.711Z,22.50
2022-11-08T18:43:13.452Z,22.90
2022-11-08T18:44:15.702Z,22.10
2022-11-08T18:45:20.247Z,22.50
2022-11-08T18:46:23.472Z,22.50
2022-11-08T18:47:25.668Z,22.30
2022-11-08T18:48:29.096Z,21.80
2022-11-08T18:49:32.394Z,23.10
2022-11-08T18:50:35.831Z,24.00
2022-11-08T18:51:38.814Z,23.30
2022-11-08T18:52:45.673Z,23.82
2022-11-08T18:53:48.248Z,24.20
2022-11-08T18:54:50.254Z,25.60
2022-11-08T18:55:53.567Z,24.70
2022-11-08T18:56:55.831Z,23.50
2022-11-08T18:57:58.039Z,24.50
2022-11-08T18:59:00.616Z,21.50
2022-11-08T19:00:03.977Z,25.20
2022-11-08T19:01:06.519Z,23.60
2022-11-08T19:02:10.315Z,24.60
2022-11-08T19:03:12.655Z,25.00
2022-11-08T19:04:14.810Z,25.30
2022-11-08T19:05:17.755Z,25.50
2022-11-08T19:06:21.073Z,27.09
2022-11-08T19:07:23.646Z,28.00
2022-11-08T19:08:28.149Z,23.80
2022-11-08T19:09:30.417Z,22.50
2022-11-08T19:10:34.125Z,23.70
2022-11-08T19:11:37.595Z,24.10
2022-11-08T19:12:40.585Z,25.50
2022-11-08T19:13:43.225Z,26.20
2022-11-08T19:14:46.850Z,22.20
2022-11-08T19:17:09.225Z,24.10
2022-11-08T19:18:11.346Z,24.70
2022-11-08T19:19:14.334Z,25.20
2022-11-08T19:20:18.817Z,25.00
2022-11-08T19:21:23.905Z,25.10
2022-11-08T19:22:27.191Z,24.80
2022-11-08T19:23:35.882Z,21.00
2022-11-08T19:24:43.658Z,25.80
2022-11-08T19:26:03.024Z,24.80
2022-11-08T19:27:11.949Z,26.20
2022-11-08T19:28:16.516Z,25.30
2022-11-08T19:29:20.107Z,22.50
2022-11-08T19:30:22.366Z,24.80
2022-11-08T19:31:24.722Z,23.30
2022-11-08T19:32:31.430Z,24.40
2022-11-08T19:33:34.232Z,25.00
2022-11-08T19:34:37.339Z,25.40
2022-11-08T19:35:41.668Z,24.55
2022-11-08T19:36:44.034Z,24.90
2022-11-08T19:37:48.229Z,24.36
2022-11-08T19:38:51.986Z,24.30
2022-11-08T19:39:59.478Z,23.20
2022-11-08T19:42:21.762Z,23.20
2022-11-08T19:43:24.023Z,24.70
2022-11-08T19:44:26.216Z,25.20
2022-11-08T19:45:28.209Z,23.60
2022-11-08T19:46:30.313Z,25.10
2022-11-08T19:47:32.408Z,25.90
2022-11-08T19:48:37.728Z,25.00
2022-11-08T19:49:40.181Z,23.20
2022-11-08T19:50:43.694Z,25.20
2022-11-08T19:51:47.104Z,25.80
2022-11-08T19:52:49.575Z,24.20
2022-11-08T19:53:57.005Z,26.10
2022-11-08T19:54:59.174Z,25.00
2022-11-08T19:56:02.751Z,24.00
2022-11-08T19:57:06.641Z,25.60
2022-11-08T19:58:08.901Z,25.90
2022-11-08T19:59:11.574Z,24.70
2022-11-08T20:00:14.409Z,26.18
2022-11-08T20:01:21.566Z,25.40
2022-11-08T20:02:24.594Z,25.50
2022-11-08T20:04:40.834Z,23.20
2022-11-08T20:05:42.902Z,25.64
2022-11-08T20:06:49.517Z,24.40
2022-11-08T20:07:51.948Z,27.50
2022-11-08T20:08:54.531Z,26.70
2022-11-08T20:09:57.226Z,24.91
2022-11-08T20:11:00.469Z,24.91
2022-11-08T20:12:04.113Z,10.50
2022-11-08T20:13:07.490Z,20.50
2022-11-08T20:14:11.926Z,25.60
2022-11-08T20:15:13.997Z,26.20
2022-11-08T20:16:21.207Z,25.60
2022-11-08T20:17:24.084Z,25.70
2022-11-08T20:18:26.885Z,26.00
2022-11-08T20:19:30.069Z,25.10
2022-11-08T20:20:33.368Z,24.80
2022-11-08T20:21:36.806Z,11.90
2022-11-08T20:22:41.041Z,24.73
2022-11-08T20:23:45.905Z,24.50
2022-11-08T20:24:48.635Z,27.90
2022-11-08T20:25:51.200Z,26.90
2022-11-08T20:26:54.510Z,25.09
2022-11-08T20:27:56.779Z,24.00
2022-11-08T20:28:59.096Z,24.60
2022-11-08T20:30:02.765Z,25.00
2022-11-08T20:31:06.665Z,26.40
2022-11-08T20:32:09.328Z,26.50
2022-11-08T20:33:11.745Z,24.80
2022-11-08T20:34:16.242Z,25.00
2022-11-08T20:35:23.534Z,26.30
2022-11-08T20:36:24.966Z,25.60
2022-11-08T20:37:27.124Z,25.40
2022-11-08T20:38:29.336Z,25.20
2022-11-08T20:39:31.364Z,10.00
2022-11-08T20:40:33.586Z,25.10
2022-11-08T20:41:36.401Z,24.00
2022-11-08T20:42:39.745Z,25.10
2022-11-08T20:43:43.310Z,25.70
2022-11-08T20:44:45.525Z,22.90
2022-11-08T20:45:48.686Z,24.70
2022-11-08T20:46:52.001Z,23.40
2022-11-08T20:47:55.302Z,25.50
2022-11-08T20:49:01.563Z,25.80
2022-11-08T20:50:04.625Z,23.60
2022-11-08T20:51:07.220Z,25.50
2022-11-08T20:52:09.882Z,24.90
2022-11-08T20:53:12.223Z,26.00
2022-11-08T20:54:15.275Z,20.30
2022-11-08T20:55:18.021Z,16.90
2022-11-08T20:56:21.923Z,23.30
2022-11-08T20:57:24.179Z,25.20
2022-11-08T20:58:28.191Z,25.10
2022-11-08T20:59:30.401Z,25.20
2022-11-08T21:00:56.940Z,24.00
2022-11-08T21:01:37.020Z,24.60
2022-11-08T21:02:40.095Z,24.20
2022-11-08T21:03:42.524Z,24.40
2022-11-08T21:04:44.541Z,25.40
2022-11-08T21:08:57.356Z,22.40
2022-11-08T21:10:41.442Z,23.30
2022-11-08T21:11:22.537Z,23.80
2022-11-08T21:12:24.966Z,24.45
2022-11-08T21:13:32.440Z,24.40
2022-11-08T21:14:34.738Z,23.70
2022-11-08T21:15:36.678Z,21.89
2022-11-08T21:17:06.627Z,21.80
2022-11-08T21:17:44.770Z,24.60
2022-11-08T21:18:47.882Z,22.20
2022-11-08T21:19:50.544Z,22.80
2022-11-08T21:21:16.659Z,24.90
2022-11-08T21:22:19.842Z,23.10
2022-11-08T21:23:22.038Z,23.10
2022-11-08T21:24:26.511Z,23.60
2022-11-08T21:25:29.389Z,23.70
2022-11-08T21:26:34.025Z,24.40
2022-11-08T21:27:35.596Z,25.20
2022-11-08T21:28:38.286Z,24.30
2022-11-08T21:29:40.394Z,22.60
2022-11-08T21:30:43.603Z,22.10
2022-11-08T21:31:45.690Z,23.73
2022-11-08T21:32:47.669Z,24.30
2022-11-08T21:33:50.747Z,23.60
2022-11-08T21:34:53.830Z,24.18
2022-11-08T21:35:56.566Z,24.00
2022-11-08T21:36:59.445Z,25.36
2022-11-08T21:38:02.850Z,23.00
2022-11-08T21:39:07.017Z,23.80
2022-11-08T21:40:11.481Z,24.30
2022-11-08T21:41:13.630Z,24.30
2022-11-08T21:42:15.663Z,22.80
2022-11-08T21:43:18.300Z,24.33
2022-11-08T21:44:20.402Z,21.80
2022-11-08T21:45:22.488Z,23.20
2022-11-08T21:46:25.531Z,1.60
2022-11-08T21:47:28.711Z,18.80
2022-11-08T21:48:30.885Z,24.80